KFAT

Fresno Yosemite International Airport

Airport
ICAO code
KFAT
Summary
ICAO Region
NAM
ICAO Territory
Location

Fresno, California,

Elevation
336 ft
Coordinates
36° 46' 34" N , 119° 43' 4" W
KCC
Airport LOS
Parallel Runway Operation
Metar
Observation
KFAT 252053Z VRB04KT 10SM FEW100 SCT200 34/09 A2995 RMK AO2 SLP136 CU OMTNS N-SE T03440094 58020 $
Station
Fresno, Fresno Air Terminal
Date/Time
2022-09-25 20:53:00
Wind speed
04 kts
Lowest cloud amount
few clouds
Temperature
34.4°C
Dew point
9.4°C
Humidity
21%
Weather condition
n/a

Description

Fresno Yosemite International Airport, formerly known as Fresno Air Terminal, is a joint civil-military (ANG) airport located in eastern Fresno, in Fresno County, California

Climatology

Fresno is marked by a semi-arid climate (Köppen climate classification BSh), with mild, moderately wet winters and hot and dry summers, thus displaying some Mediterranean (Köppen climate classification CSa) characteristics.

Airport map

Aerial View

SKYbrary Partners:

Safety knowledge contributed by: